sensor_id;sensor_type;location;lat;lon;timestamp;pressure;altitude;pressure_sealevel;temperature;humidity
33697;BME280;20031;43.416;23.232;2023-03-01T00:01:29;101000.41;;;5.42;94.58
33697;BME280;20031;43.416;23.232;2023-03-01T00:03:55;100997.13;;;5.40;94.75
33697;BME280;20031;43.416;23.232;2023-03-01T00:06:21;100993.59;;;5.41;94.71
33697;BME280;20031;43.416;23.232;2023-03-01T00:08:47;100991.00;;;5.41;94.91
33697;BME280;20031;43.416;23.232;2023-03-01T00:11:20;100991.75;;;5.43;94.74
33697;BME280;20031;43.416;23.232;2023-03-01T00:13:47;100989.16;;;5.43;95.15
33697;BME280;20031;43.416;23.232;2023-03-01T00:16:17;100978.94;;;5.41;94.63
33697;BME280;20031;43.416;23.232;2023-03-01T00:18:43;100980.69;;;5.41;94.79
33697;BME280;20031;43.416;23.232;2023-03-01T00:21:09;100984.94;;;5.42;95.08
33697;BME280;20031;43.416;23.232;2023-03-01T00:23:36;100974.59;;;5.42;94.68
33697;BME280;20031;43.416;23.232;2023-03-01T00:26:02;100972.94;;;5.41;95.00
33697;BME280;20031;43.416;23.232;2023-03-01T00:28:31;100968.72;;;5.40;94.84
33697;BME280;20031;43.416;23.232;2023-03-01T00:31:03;100958.66;;;5.35;94.60
33697;BME280;20031;43.416;23.232;2023-03-01T00:33:28;100965.81;;;5.32;94.88
33697;BME280;20031;43.416;23.232;2023-03-01T00:35:54;100960.84;;;5.29;94.74
33697;BME280;20031;43.416;23.232;2023-03-01T00:38:19;100962.53;;;5.30;94.96
33697;BME280;20031;43.416;23.232;2023-03-01T00:40:44;100954.94;;;5.27;94.68
33697;BME280;20031;43.416;23.232;2023-03-01T00:43:10;100959.19;;;5.28;95.29
33697;BME280;20031;43.416;23.232;2023-03-01T00:45:35;100961.06;;;5.26;94.82
33697;BME280;20031;43.416;23.232;2023-03-01T00:48:01;100963.53;;;5.27;94.80
33697;BME280;20031;43.416;23.232;2023-03-01T00:50:26;100956.63;;;5.28;95.06
33697;BME280;20031;43.416;23.232;2023-03-01T00:52:53;100962.41;;;5.31;95.63
33697;BME280;20031;43.416;23.232;2023-03-01T00:55:19;100960.75;;;5.30;94.97
33697;BME280;20031;43.416;23.232;2023-03-01T00:57:44;100952.78;;;5.33;95.59
33697;BME280;20031;43.416;23.232;2023-03-01T01:00:10;100957.03;;;5.34;95.12
33697;BME280;20031;43.416;23.232;2023-03-01T01:02:36;100962.22;;;5.34;94.99
33697;BME280;20031;43.416;23.232;2023-03-01T01:05:02;100954.56;;;5.33;95.57
33697;BME280;20031;43.416;23.232;2023-03-01T01:07:28;100953.94;;;5.29;95.14
33697;BME280;20031;43.416;23.232;2023-03-01T01:09:53;100952.28;;;5.28;94.85
33697;BME280;20031;43.416;23.232;2023-03-01T01:12:19;100954.03;;;5.28;94.98
33697;BME280;20031;43.416;23.232;2023-03-01T01:14:44;100950.53;;;5.29;95.46
33697;BME280;20031;43.416;23.232;2023-03-01T01:17:10;100952.19;;;5.30;95.29
33697;BME280;20031;43.416;23.232;2023-03-01T01:19:35;100945.38;;;5.29;95.18
33697;BME280;20031;43.416;23.232;2023-03-01T01:22:01;100947.94;;;5.29;95.01
33697;BME280;20031;43.416;23.232;2023-03-01T01:24:26;100953.94;;;5.29;95.18
33697;BME280;20031;43.416;23.232;2023-03-01T01:26:51;100947.75;;;5.32;95.70
33697;BME280;20031;43.416;23.232;2023-03-01T01:29:17;100944.22;;;5.33;95.10
33697;BME280;20031;43.416;23.232;2023-03-01T01:31:43;100946.19;;;5.29;94.82
33697;BME280;20031;43.416;23.232;2023-03-01T01:34:16;100947.22;;;5.27;95.30
33697;BME280;20031;43.416;23.232;2023-03-01T01:36:42;100941.22;;;5.26;95.39
33697;BME280;20031;43.416;23.232;2023-03-01T01:39:07;100948.16;;;5.26;94.99
33697;BME280;20031;43.416;23.232;2023-03-01T01:41:33;100944.03;;;5.23;95.29
33697;BME280;20031;43.416;23.232;2023-03-01T01:44:17;100944.13;;;5.22;95.56
33697;BME280;20031;43.416;23.232;2023-03-01T01:46:52;100946.72;;;5.22;95.19
33697;BME280;20031;43.416;23.232;2023-03-01T01:51:45;100945.03;;;5.21;95.53
33697;BME280;20031;43.416;23.232;2023-03-01T01:54:19;100950.22;;;5.21;95.56
33697;BME280;20031;43.416;23.232;2023-03-01T01:57:00;100954.56;;;5.20;95.49
33697;BME280;20031;43.416;23.232;2023-03-01T01:59:28;100951.97;;;5.20;95.12
33697;BME280;20031;43.416;23.232;2023-03-01T02:01:57;100948.69;;;5.18;95.47
33697;BME280;20031;43.416;23.232;2023-03-01T02:04:24;100941.97;;;5.16;95.40
33697;BME280;20031;43.416;23.232;2023-03-01T02:07:01;100940.09;;;5.18;95.59
33697;BME280;20031;43.416;23.232;2023-03-01T02:09:30;100939.38;;;5.16;95.14
33697;BME280;20031;43.416;23.232;2023-03-01T02:11:57;100941.00;;;5.17;95.42
33697;BME280;20031;43.416;23.232;2023-03-01T02:14:22;100941.13;;;5.15;95.35
33697;BME280;20031;43.416;23.232;2023-03-01T02:16:48;100936.81;;;5.16;95.19
33697;BME280;20031;43.416;23.232;2023-03-01T02:22:17;100939.59;;;5.13;95.66
33697;BME280;20031;43.416;23.232;2023-03-01T02:27:40;100935.34;;;5.12;95.27
33697;BME280;20031;43.416;23.232;2023-03-01T02:30:11;100932.75;;;5.12;95.61
33697;BME280;20031;43.416;23.232;2023-03-01T02:32:41;100935.34;;;5.12;95.83
33697;BME280;20031;43.416;23.232;2023-03-01T02:35:13;100932.66;;;5.13;95.80
33697;BME280;20031;43.416;23.232;2023-03-01T02:37:41;100934.53;;;5.11;95.57
33697;BME280;20031;43.416;23.232;2023-03-01T02:40:11;100927.69;;;5.10;95.36
33697;BME280;20031;43.416;23.232;2023-03-01T02:42:46;100935.34;;;5.12;95.94
33697;BME280;20031;43.416;23.232;2023-03-01T02:45:12;100939.69;;;5.11;95.24
33697;BME280;20031;43.416;23.232;2023-03-01T02:47:38;100942.59;;;5.07;95.35
33697;BME280;20031;43.416;23.232;2023-03-01T02:50:41;100937.44;;;5.07;95.87
33697;BME280;20031;43.416;23.232;2023-03-01T02:56:01;100939.25;;;5.05;95.86
33697;BME280;20031;43.416;23.232;2023-03-01T02:58:27;100923.97;;;5.02;95.80
33697;BME280;20031;43.416;23.232;2023-03-01T03:00:52;100923.97;;;5.02;95.78
33697;BME280;20031;43.416;23.232;2023-03-01T03:03:20;100929.75;;;5.05;95.87
33697;BME280;20031;43.416;23.232;2023-03-01T03:05:46;100927.16;;;5.05;95.41
33697;BME280;20031;43.416;23.232;2023-03-01T03:08:12;100925.53;;;5.05;95.33
33697;BME280;20031;43.416;23.232;2023-03-01T03:10:40;100918.63;;;5.05;95.93
33697;BME280;20031;43.416;23.232;2023-03-01T03:13:13;100921.28;;;5.04;95.84
33697;BME280;20031;43.416;23.232;2023-03-01T03:15:40;100925.44;;;5.06;95.73
33697;BME280;20031;43.416;23.232;2023-03-01T03:18:09;100930.50;;;5.07;95.88
33697;BME280;20031;43.416;23.232;2023-03-01T03:20:36;100931.41;;;5.06;95.82
33697;BME280;20031;43.416;23.232;2023-03-01T03:23:03;100927.16;;;5.05;95.92
33697;BME280;20031;43.416;23.232;2023-03-01T03:25:29;100924.59;;;5.05;95.89
33697;BME280;20031;43.416;23.232;2023-03-01T03:27:55;100915.44;;;5.02;95.19
33697;BME280;20031;43.416;23.232;2023-03-01T03:30:27;100923.16;;;5.02;96.02
33697;BME280;20031;43.416;23.232;2023-03-01T03:32:53;100923.97;;;5.02;95.50
33697;BME280;20031;43.416;23.232;2023-03-01T03:35:26;100918.81;;;5.02;95.92
33697;BME280;20031;43.416;23.232;2023-03-01T03:37:53;100919.75;;;5.01;95.92
33697;BME280;20031;43.416;23.232;2023-03-01T03:40:39;100926.47;;;5.04;95.83
33697;BME280;20031;43.416;23.232;2023-03-01T03:43:09;100930.59;;;5.06;96.33
33697;BME280;20031;43.416;23.232;2023-03-01T03:45:35;100924.41;;;5.08;95.69
33697;BME280;20031;43.416;23.232;2023-03-01T03:48:01;100928.84;;;5.06;96.26
33697;BME280;20031;43.416;23.232;2023-03-01T03:50:27;100928.72;;;5.08;96.11
33697;BME280;20031;43.416;23.232;2023-03-01T03:52:53;100927.91;;;5.07;95.85
33697;BME280;20031;43.416;23.232;2023-03-01T03:55:18;100930.50;;;5.07;96.02
33697;BME280;20031;43.416;23.232;2023-03-01T03:57:46;100933.06;;;5.07;95.47
33697;BME280;20031;43.416;23.232;2023-03-01T04:00:20;100923.56;;;5.08;96.28
33697;BME280;20031;43.416;23.232;2023-03-01T04:02:47;100921.94;;;5.07;95.88
33697;BME280;20031;43.416;23.232;2023-03-01T04:05:15;100920.06;;;5.09;95.61
33697;BME280;20031;43.416;23.232;2023-03-01T04:07:42;100921.84;;;5.08;95.78
33697;BME280;20031;43.416;23.232;2023-03-01T04:10:18;100925.13;;;5.10;96.16
33697;BME280;20031;43.416;23.232;2023-03-01T04:12:44;100926.88;;;5.10;95.87
33697;BME280;20031;43.416;23.232;2023-03-01T04:15:11;100932.75;;;5.12;96.18
33697;BME280;20031;43.416;23.232;2023-03-01T04:17:40;100927.69;;;5.10;96.02
33697;BME280;20031;43.416;23.232;2023-03-01T04:20:08;100920.56;;;5.14;96.18
33697;BME280;20031;43.416;23.232;2023-03-01T04:22:34;100917.06;;;5.15;95.75
33697;BME280;20031;43.416;23.232;2023-03-01T04:25:00;100914.47;;;5.15;95.94
33697;BME280;20031;43.416;23.232;2023-03-01T04:27:27;100914.47;;;5.15;95.88
33697;BME280;20031;43.416;23.232;2023-03-01T04:29:52;100911.19;;;5.13;95.51
33697;BME280;20031;43.416;23.232;2023-03-01T04:32:17;100912.22;;;5.10;95.64
33697;BME280;20031;43.416;23.232;2023-03-01T04:34:43;100901.78;;;5.12;95.68
33697;BME280;20031;43.416;23.232;2023-03-01T04:37:09;100900.88;;;5.13;96.13
33697;BME280;20031;43.416;23.232;2023-03-01T04:39:34;100905.81;;;5.16;95.94
33697;BME280;20031;43.416;23.232;2023-03-01T04:42:11;100907.44;;;5.17;95.33
33697;BME280;20031;43.416;23.232;2023-03-01T04:44:36;100903.13;;;5.17;95.50
33697;BME280;20031;43.416;23.232;2023-03-01T04:47:01;100905.50;;;5.20;96.34
33697;BME280;20031;43.416;23.232;2023-03-01T04:49:27;100898.56;;;5.21;95.67
33697;BME280;20031;43.416;23.232;2023-03-01T04:51:52;100903.03;;;5.19;95.73
33697;BME280;20031;43.416;23.232;2023-03-01T04:54:18;100903.75;;;5.21;95.49
33697;BME280;20031;43.416;23.232;2023-03-01T04:56:43;100903.75;;;5.21;96.21
33697;BME280;20031;43.416;23.232;2023-03-01T04:59:09;100895.28;;;5.19;96.03
33697;BME280;20031;43.416;23.232;2023-03-01T05:01:35;100890.72;;;5.22;95.95
33697;BME280;20031;43.416;23.232;2023-03-01T05:04:00;100897.53;;;5.23;95.84
33697;BME280;20031;43.416;23.232;2023-03-01T05:06:28;100896.84;;;5.21;95.96
33697;BME280;20031;43.416;23.232;2023-03-01T05:08:53;100897.66;;;5.22;95.71
33697;BME280;20031;43.416;23.232;2023-03-01T05:11:19;100894.25;;;5.21;95.43
33697;BME280;20031;43.416;23.232;2023-03-01T05:13:44;100889.91;;;5.22;95.67
33697;BME280;20031;43.416;23.232;2023-03-01T05:16:10;100883.81;;;5.23;95.94
33697;BME280;20031;43.416;23.232;2023-03-01T05:18:36;100886.41;;;5.23;95.85
33697;BME280;20031;43.416;23.232;2023-03-01T05:21:07;100888.03;;;5.24;95.69
33697;BME280;20031;43.416;23.232;2023-03-01T05:23:34;100881.25;;;5.23;95.46
33697;BME280;20031;43.416;23.232;2023-03-01T05:26:00;100882.97;;;5.22;95.81
33697;BME280;20031;43.416;23.232;2023-03-01T05:28:27;100890.41;;;5.27;95.95
33697;BME280;20031;43.416;23.232;2023-03-01T05:30:53;100892.97;;;5.27;95.61
33697;BME280;20031;43.416;23.232;2023-03-01T05:33:19;100886.91;;;5.28;95.44
33697;BME280;20031;43.416;23.232;2023-03-01T05:35:47;100886.69;;;5.31;95.47
33697;BME280;20031;43.416;23.232;2023-03-01T05:38:14;100891.75;;;5.32;95.32
33697;BME280;20031;43.416;23.232;2023-03-01T05:40:41;100890.00;;;5.33;95.97
33697;BME280;20031;43.416;23.232;2023-03-01T05:43:07;100905.41;;;5.34;95.80
33697;BME280;20031;43.416;23.232;2023-03-01T05:45:33;100891.53;;;5.35;95.96
33697;BME280;20031;43.416;23.232;2023-03-01T05:48:00;100892.16;;;5.39;95.62
33697;BME280;20031;43.416;23.232;2023-03-01T05:50:28;100895.13;;;5.45;95.55
33697;BME280;20031;43.416;23.232;2023-03-01T05:53:03;100891.53;;;5.48;95.64
33697;BME280;20031;43.416;23.232;2023-03-01T05:55:31;100903.50;;;5.49;95.76
33697;BME280;20031;43.416;23.232;2023-03-01T05:58:01;100911.03;;;5.52;95.76
33697;BME280;20031;43.416;23.232;2023-03-01T06:00:28;100914.44;;;5.52;95.03
33697;BME280;20031;43.416;23.232;2023-03-01T06:02:55;100911.84;;;5.52;95.33
33697;BME280;20031;43.416;23.232;2023-03-01T06:05:21;100904.84;;;5.54;95.28
33697;BME280;20031;43.416;23.232;2023-03-01T06:07:47;100907.22;;;5.57;95.66
33697;BME280;20031;43.416;23.232;2023-03-01T06:10:14;100909.47;;;5.61;95.14
33697;BME280;20031;43.416;23.232;2023-03-01T06:12:40;100914.44;;;5.64;95.55
33697;BME280;20031;43.416;23.232;2023-03-01T06:15:07;100907.59;;;5.63;95.26
33697;BME280;20031;43.416;23.232;2023-03-01T06:17:35;100913.19;;;5.70;95.23
33697;BME280;20031;43.416;23.232;2023-03-01T06:20:07;100921.53;;;5.73;95.33
33697;BME280;20031;43.416;23.232;2023-03-01T06:22:32;100922.69;;;5.69;94.86
33697;BME280;20031;43.416;23.232;2023-03-01T06:24:58;100921.75;;;5.70;95.37
33697;BME280;20031;43.416;23.232;2023-03-01T06:27:23;100925.06;;;5.72;94.99
33697;BME280;20031;43.416;23.232;2023-03-01T06:29:49;100912.25;;;5.71;95.23
33697;BME280;20031;43.416;23.232;2023-03-01T06:32:14;100923.50;;;5.70;94.61
33697;BME280;20031;43.416;23.232;2023-03-01T06:34:40;100931.16;;;5.71;95.07
33697;BME280;20031;43.416;23.232;2023-03-01T06:37:06;100927.47;;;5.75;95.09
33697;BME280;20031;43.416;23.232;2023-03-01T06:39:32;100918.13;;;5.85;95.04
33697;BME280;20031;43.416;23.232;2023-03-01T06:41:58;100924.53;;;5.92;95.11
33697;BME280;20031;43.416;23.232;2023-03-01T06:44:23;100925.75;;;5.99;94.78
33697;BME280;20031;43.416;23.232;2023-03-01T06:46:49;100928.00;;;6.04;94.87
33697;BME280;20031;43.416;23.232;2023-03-01T06:49:14;100930.25;;;6.08;94.75
33697;BME280;20031;43.416;23.232;2023-03-01T06:51:41;100926.53;;;6.12;94.71
33697;BME280;20031;43.416;23.232;2023-03-01T06:54:08;100925.16;;;6.19;94.22
33697;BME280;20031;43.416;23.232;2023-03-01T06:56:33;100918.59;;;6.26;94.53
33697;BME280;20031;43.416;23.232;2023-03-01T06:58:59;100925.19;;;6.30;94.09
33697;BME280;20031;43.416;23.232;2023-03-01T07:01:24;100919.69;;;6.34;93.97
33697;BME280;20031;43.416;23.232;2023-03-01T07:03:50;100919.34;;;6.39;93.90
33697;BME280;20031;43.416;23.232;2023-03-01T07:06:15;100917.25;;;6.44;93.39
33697;BME280;20031;43.416;23.232;2023-03-01T07:08:43;100917.97;;;6.46;93.10
33697;BME280;20031;43.416;23.232;2023-03-01T07:11:08;100907.09;;;6.53;93.23
33697;BME280;20031;43.416;23.232;2023-03-01T07:13:34;100910.03;;;6.59;93.34
33697;BME280;20031;43.416;23.232;2023-03-01T07:16:00;100905.34;;;6.64;92.75
33697;BME280;20031;43.416;23.232;2023-03-01T07:18:25;100906.75;;;6.68;93.00
33697;BME280;20031;43.416;23.232;2023-03-01T07:20:52;100906.22;;;6.76;92.50
33697;BME280;20031;43.416;23.232;2023-03-01T07:23:18;100903.97;;;6.82;92.85
33697;BME280;20031;43.416;23.232;2023-03-01T07:25:43;100907.53;;;6.81;91.50
33697;BME280;20031;43.416;23.232;2023-03-01T07:28:09;100902.81;;;6.86;91.68
33697;BME280;20031;43.416;23.232;2023-03-01T07:30:34;100905.41;;;6.86;91.32
33697;BME280;20031;43.416;23.232;2023-03-01T07:33:00;100906.38;;;6.96;91.88
33697;BME280;20031;43.416;23.232;2023-03-01T07:35:26;100903.44;;;7.01;91.47
33697;BME280;20031;43.416;23.232;2023-03-01T07:37:52;100899.19;;;7.10;90.68
33697;BME280;20031;43.416;23.232;2023-03-01T07:40:18;100910.19;;;7.14;90.40
33697;BME280;20031;43.416;23.232;2023-03-01T07:42:43;100908.03;;;7.19;89.95
33697;BME280;20031;43.416;23.232;2023-03-01T07:45:09;100906.19;;;7.21;89.39
33697;BME280;20031;43.416;23.232;2023-03-01T07:47:35;100912.31;;;7.31;89.01
33697;BME280;20031;43.416;23.232;2023-03-01T07:50:02;100910.75;;;7.39;88.58
33697;BME280;20031;43.416;23.232;2023-03-01T07:52:28;100906.88;;;7.45;88.32
33697;BME280;20031;43.416;23.232;2023-03-01T07:54:53;100908.41;;;7.36;87.31
33697;BME280;20031;43.416;23.232;2023-03-01T07:57:19;100900.16;;;7.31;87.04
33697;BME280;20031;43.416;23.232;2023-03-01T07:59:45;100899.69;;;7.37;86.52
33697;BME280;20031;43.416;23.232;2023-03-01T08:02:10;100906.66;;;7.37;86.20
33697;BME280;20031;43.416;23.232;2023-03-01T08:04:36;100910.66;;;7.41;86.01
33697;BME280;20031;43.416;23.232;2023-03-01T08:07:05;100905.47;;;7.41;85.45
33697;BME280;20031;43.416;23.232;2023-03-01T08:09:31;100894.63;;;7.36;85.19
33697;BME280;20031;43.416;23.232;2023-03-01T08:11:57;100900.28;;;7.30;84.19
33697;BME280;20031;43.416;23.232;2023-03-01T08:14:24;100889.78;;;7.20;83.64
33697;BME280;20031;43.416;23.232;2023-03-01T08:16:50;100898.28;;;7.22;83.75
33697;BME280;20031;43.416;23.232;2023-03-01T08:19:16;100893.00;;;7.24;83.98
33697;BME280;20031;43.416;23.232;2023-03-01T08:21:41;100891.44;;;7.21;83.52
33697;BME280;20031;43.416;23.232;2023-03-01T08:24:07;100892.03;;;7.25;83.22
33697;BME280;20031;43.416;23.232;2023-03-01T08:26:35;100891.78;;;7.28;82.60
33697;BME280;20031;43.416;23.232;2023-03-01T08:29:01;100887.78;;;7.35;82.94
33697;BME280;20031;43.416;23.232;2023-03-01T08:31:34;100899.94;;;7.34;81.89
33697;BME280;20031;43.416;23.232;2023-03-01T08:34:03;100898.63;;;7.29;81.76
33697;BME280;20031;43.416;23.232;2023-03-01T08:36:32;100896.75;;;7.31;81.81
33697;BME280;20031;43.416;23.232;2023-03-01T08:38:59;100907.00;;;7.32;81.58
33697;BME280;20031;43.416;23.232;2023-03-01T08:41:24;100895.91;;;7.30;81.86
33697;BME280;20031;43.416;23.232;2023-03-01T08:43:51;100889.31;;;7.26;81.30
33697;BME280;20031;43.416;23.232;2023-03-01T08:46:17;100891.09;;;7.26;81.41
33697;BME280;20031;43.416;23.232;2023-03-01T08:48:43;100896.16;;;7.27;81.66
33697;BME280;20031;43.416;23.232;2023-03-01T08:51:10;100895.81;;;7.21;81.16
33697;BME280;20031;43.416;23.232;2023-03-01T08:53:36;100897.09;;;7.15;81.37
33697;BME280;20031;43.416;23.232;2023-03-01T08:56:02;100891.94;;;7.15;82.24
33697;BME280;20031;43.416;23.232;2023-03-01T08:58:29;100898.03;;;7.14;81.95
33697;BME280;20031;43.416;23.232;2023-03-01T09:00:54;100892.16;;;7.12;81.97
33697;BME280;20031;43.416;23.232;2023-03-01T09:03:22;100904.38;;;7.10;82.36
33697;BME280;20031;43.416;23.232;2023-03-01T09:05:47;100906.94;;;7.00;82.57
33697;BME280;20031;43.416;23.232;2023-03-01T09:08:14;100902.13;;;6.95;82.67
33697;BME280;20031;43.416;23.232;2023-03-01T09:10:39;100898.13;;;6.91;82.63
33697;BME280;20031;43.416;23.232;2023-03-01T09:13:05;100895.97;;;6.85;82.91
33697;BME280;20031;43.416;23.232;2023-03-01T09:15:30;100904.59;;;6.86;83.16
33697;BME280;20031;43.416;23.232;2023-03-01T09:17:56;100898.44;;;6.87;83.34
33697;BME280;20031;43.416;23.232;2023-03-01T09:20:21;100894.94;;;6.88;83.06
33697;BME280;20031;43.416;23.232;2023-03-01T09:22:47;100892.97;;;6.91;83.57
33697;BME280;20031;43.416;23.232;2023-03-01T09:25:12;100898.72;;;6.95;83.45
33697;BME280;20031;43.416;23.232;2023-03-01T09:27:38;100894.69;;;6.91;83.18
33697;BME280;20031;43.416;23.232;2023-03-01T09:30:04;100900.00;;;6.89;83.66
33697;BME280;20031;43.416;23.232;2023-03-01T09:32:30;100892.69;;;6.83;83.35
33697;BME280;20031;43.416;23.232;2023-03-01T09:34:56;100897.53;;;6.88;82.97
33697;BME280;20031;43.416;23.232;2023-03-01T09:37:32;100892.84;;;6.93;83.63
33697;BME280;20031;43.416;23.232;2023-03-01T09:39:58;100890.47;;;7.01;83.42
33697;BME280;20031;43.416;23.232;2023-03-01T09:42:23;100892.03;;;7.03;83.12
33697;BME280;20031;43.416;23.232;2023-03-01T09:44:59;100896.72;;;7.09;83.19
33697;BME280;20031;43.416;23.232;2023-03-01T09:47:29;100894.63;;;7.03;83.38
33697;BME280;20031;43.416;23.232;2023-03-01T09:50:11;100893.69;;;7.04;82.90
33697;BME280;20031;43.416;23.232;2023-03-01T09:55:09;100899.53;;;6.95;83.03
33697;BME280;20031;43.416;23.232;2023-03-01T09:57:50;100893.78;;;6.92;82.96
33697;BME280;20031;43.416;23.232;2023-03-01T10:02:57;100895.53;;;7.02;83.71
33697;BME280;20031;43.416;23.232;2023-03-01T10:08:29;100886.59;;;7.06;83.60
33697;BME280;20031;43.416;23.232;2023-03-01T10:10:57;100888.81;;;7.00;83.64
33697;BME280;20031;43.416;23.232;2023-03-01T10:13:46;100880.13;;;7.01;83.80
33697;BME280;20031;43.416;23.232;2023-03-01T10:16:48;100881.53;;;7.05;83.92
33697;BME280;20031;43.416;23.232;2023-03-01T10:19:23;100878.59;;;6.98;84.22
33697;BME280;20031;43.416;23.232;2023-03-01T10:21:50;100887.31;;;6.97;84.04
33697;BME280;20031;43.416;23.232;2023-03-01T10:24:18;100878.00;;;6.95;84.29
33697;BME280;20031;43.416;23.232;2023-03-01T10:26:57;100877.06;;;6.96;84.36
33697;BME280;20031;43.416;23.232;2023-03-01T10:29:31;100871.16;;;6.94;84.32
33697;BME280;20031;43.416;23.232;2023-03-01T10:32:01;100875.28;;;6.96;84.44
33697;BME280;20031;43.416;23.232;2023-03-01T10:34:31;100872.72;;;6.96;84.87
33697;BME280;20031;43.416;23.232;2023-03-01T10:39:34;100863.53;;;6.81;84.66
33697;BME280;20031;43.416;23.232;2023-03-01T10:42:02;100861.13;;;6.78;84.97
33697;BME280;20031;43.416;23.232;2023-03-01T10:44:46;100854.69;;;6.84;84.76
33697;BME280;20031;43.416;23.232;2023-03-01T10:47:26;100855.28;;;6.87;85.44
33697;BME280;20031;43.416;23.232;2023-03-01T10:50:03;100854.81;;;6.93;85.47
33697;BME280;20031;43.416;23.232;2023-03-01T10:52:33;100853.16;;;6.92;85.85
33697;BME280;20031;43.416;23.232;2023-03-01T10:55:33;100845.88;;;6.86;85.19
33697;BME280;20031;43.416;23.232;2023-03-01T10:58:20;100847.53;;;6.87;85.95
33697;BME280;20031;43.416;23.232;2023-03-01T11:00:54;100833.84;;;6.85;85.68
33697;BME280;20031;43.416;23.232;2023-03-01T11:03:32;100835.66;;;6.96;85.67
33697;BME280;20031;43.416;23.232;2023-03-01T11:08:46;100829.06;;;7.03;85.43
33697;BME280;20031;43.416;23.232;2023-03-01T11:13:50;100817.28;;;6.99;85.50
33697;BME280;20031;43.416;23.232;2023-03-01T11:16:29;100826.69;;;7.00;85.83
33697;BME280;20031;43.416;23.232;2023-03-01T11:24:06;100804.56;;;7.07;85.37
33697;BME280;20031;43.416;23.232;2023-03-01T11:26:39;100814.59;;;7.11;85.52
33697;BME280;20031;43.416;23.232;2023-03-01T11:29:13;100812.44;;;7.16;85.44
33697;BME280;20031;43.416;23.232;2023-03-01T11:31:41;100803.75;;;7.17;85.08
33697;BME280;20031;43.416;23.232;2023-03-01T11:34:35;100805.38;;;7.18;85.26
33697;BME280;20031;43.416;23.232;2023-03-01T11:37:10;100806.09;;;7.20;85.29
33697;BME280;20031;43.416;23.232;2023-03-01T11:39:53;100810.66;;;7.27;84.98
33697;BME280;20031;43.416;23.232;2023-03-01T11:42:42;100804.44;;;7.30;85.08
33697;BME280;20031;43.416;23.232;2023-03-01T11:45:12;100799.38;;;7.28;84.73
33697;BME280;20031;43.416;23.232;2023-03-01T12:01:24;100776.13;;;7.49;83.70
33697;BME280;20031;43.416;23.232;2023-03-01T12:06:49;100777.78;;;7.50;83.79
33697;BME280;20031;43.416;23.232;2023-03-01T12:25:20;100762.75;;;7.33;81.60
33697;BME280;20031;43.416;23.232;2023-03-01T12:28:08;100754.97;;;7.33;82.29
33697;BME280;20031;43.416;23.232;2023-03-01T12:39:04;100759.69;;;7.28;82.71
33697;BME280;20031;43.416;23.232;2023-03-01T12:47:23;100758.88;;;7.16;83.15
33697;BME280;20031;43.416;23.232;2023-03-01T12:49:55;100751.69;;;7.20;83.61
33697;BME280;20031;43.416;23.232;2023-03-01T12:54:51;100757.56;;;7.22;83.37
33697;BME280;20031;43.416;23.232;2023-03-01T12:57:36;100752.44;;;7.11;83.67
33697;BME280;20031;43.416;23.232;2023-03-01T13:02:58;100742.53;;;7.05;84.28
33697;BME280;20031;43.416;23.232;2023-03-01T13:05:47;100744.88;;;7.08;84.49
33697;BME280;20031;43.416;23.232;2023-03-01T13:08:22;100745.59;;;7.10;84.78
33697;BME280;20031;43.416;23.232;2023-03-01T13:10:58;100740.28;;;7.11;84.66
33697;BME280;20031;43.416;23.232;2023-03-01T13:13:27;100741.09;;;7.12;84.71
33697;BME280;20031;43.416;23.232;2023-03-01T13:15:53;100741.00;;;7.13;84.87
33697;BME280;20031;43.416;23.232;2023-03-01T13:20:52;100738.41;;;7.13;85.43
33697;BME280;20031;43.416;23.232;2023-03-01T13:26:12;100731.72;;;7.11;85.28
33697;BME280;20031;43.416;23.232;2023-03-01T13:34:39;100735.25;;;7.10;85.52
33697;BME280;20031;43.416;23.232;2023-03-01T13:37:10;100732.28;;;7.14;85.89
33697;BME280;20031;43.416;23.232;2023-03-01T13:39:43;100726.75;;;7.19;86.09
33697;BME280;20031;43.416;23.232;2023-03-01T13:42:34;100725.94;;;7.18;86.22
33697;BME280;20031;43.416;23.232;2023-03-01T13:45:04;100718.28;;;7.17;85.52
33697;BME280;20031;43.416;23.232;2023-03-01T13:47:32;100720.16;;;7.15;86.04
33697;BME280;20031;43.416;23.232;2023-03-01T13:50:04;100725.09;;;7.18;86.03
33697;BME280;20031;43.416;23.232;2023-03-01T13:52:40;100725.22;;;7.16;85.25
33697;BME280;20031;43.416;23.232;2023-03-01T13:57:39;100722.03;;;7.13;85.59
33697;BME280;20031;43.416;23.232;2023-03-01T14:00:07;100721.56;;;7.08;85.48
33697;BME280;20031;43.416;23.232;2023-03-01T14:02:33;100721.00;;;7.05;85.41
33697;BME280;20031;43.416;23.232;2023-03-01T14:05:01;100720.53;;;7.00;85.79
33697;BME280;20031;43.416;23.232;2023-03-01T14:07:27;100719.47;;;7.02;85.54
33697;BME280;20031;43.416;23.232;2023-03-01T14:09:58;100712.53;;;7.03;86.05
33697;BME280;20031;43.416;23.232;2023-03-01T14:12:52;100714.41;;;7.01;85.93
33697;BME280;20031;43.416;23.232;2023-03-01T14:15:29;100716.88;;;7.02;86.17
33697;BME280;20031;43.416;23.232;2023-03-01T14:18:10;100713.00;;;6.97;85.93
33697;BME280;20031;43.416;23.232;2023-03-01T14:20:41;100718.28;;;6.95;86.17
33697;BME280;20031;43.416;23.232;2023-03-01T14:23:13;100711.63;;;6.93;86.13
33697;BME280;20031;43.416;23.232;2023-03-01T14:25:50;100703.97;;;6.91;86.25
33697;BME280;20031;43.416;23.232;2023-03-01T14:28:29;100697.94;;;6.91;86.49
33697;BME280;20031;43.416;23.232;2023-03-01T14:31:00;100701.38;;;6.91;86.43
33697;BME280;20031;43.416;23.232;2023-03-01T14:33:30;100703.97;;;6.91;86.18
33697;BME280;20031;43.416;23.232;2023-03-01T14:36:04;100697.81;;;6.92;86.51
33697;BME280;20031;43.416;23.232;2023-03-01T14:38:31;100694.06;;;6.96;86.64